createdAt,value
2019-05-17T00:00:28.736Z,48.50
2019-05-17T00:03:00.168Z,48.90
2019-05-17T00:05:31.654Z,48.30
2019-05-17T00:08:03.437Z,46.10
2019-05-17T00:10:37.258Z,47.20
2019-05-17T00:13:14.020Z,46.67
2019-05-17T00:15:43.856Z,45.73
2019-05-17T00:18:17.177Z,52.57
2019-05-17T00:20:48.952Z,54.87
2019-05-17T00:23:20.418Z,51.40
2019-05-17T00:25:52.210Z,56.37
2019-05-17T00:28:23.737Z,59.50
2019-05-17T00:30:57.162Z,61.33
2019-05-17T00:33:28.821Z,66.13
2019-05-17T00:36:00.519Z,61.07
2019-05-17T00:38:43.830Z,62.20
2019-05-17T00:41:07.070Z,73.57
2019-05-17T00:43:39.305Z,66.63
2019-05-17T00:46:11.255Z,61.77
2019-05-17T00:48:43.003Z,60.77
2019-05-17T00:51:16.752Z,57.10
2019-05-17T00:53:47.905Z,57.57
2019-05-17T00:56:19.410Z,61.27
2019-05-17T00:58:50.901Z,56.00
2019-05-17T01:01:22.870Z,59.00
2019-05-17T01:03:54.301Z,57.53
2019-05-17T01:06:27.525Z,65.53
2019-05-17T01:09:03.466Z,67.30
2019-05-17T01:11:36.447Z,75.40
2019-05-17T01:14:07.634Z,98.87
2019-05-17T01:16:39.117Z,96.23
2019-05-17T01:19:10.860Z,108.50
2019-05-17T01:21:43.294Z,107.83
2019-05-17T01:24:17.323Z,122.20
2019-05-17T01:26:49.039Z,116.80
2019-05-17T01:29:20.794Z,126.27
2019-05-17T01:31:52.157Z,115.60
2019-05-17T01:34:23.549Z,107.77
2019-05-17T01:36:56.883Z,110.13
2019-05-17T01:39:28.187Z,116.10
2019-05-17T01:41:59.676Z,105.20
2019-05-17T01:44:31.335Z,99.83
2019-05-17T01:47:03.077Z,87.40
2019-05-17T01:49:36.355Z,84.17
2019-05-17T01:52:08.076Z,83.60
2019-05-17T01:54:40.641Z,77.53
2019-05-17T01:57:12.378Z,85.33
2019-05-17T01:59:46.542Z,96.20
2019-05-17T02:02:21.529Z,86.67
2019-05-17T02:04:53.395Z,97.10
2019-05-17T02:07:26.772Z,102.63
2019-05-17T02:09:58.363Z,105.53
2019-05-17T02:12:29.993Z,106.80
2019-05-17T02:15:01.561Z,93.90
2019-05-17T02:17:33.125Z,108.63
2019-05-17T02:20:06.409Z,103.63
2019-05-17T02:22:38.379Z,112.50
2019-05-17T02:25:11.630Z,132.10
2019-05-17T02:27:44.780Z,115.47
2019-05-17T02:30:18.853Z,127.87
2019-05-17T02:32:54.019Z,118.80
2019-05-17T02:35:24.523Z,118.73
2019-05-17T02:37:56.254Z,115.17
2019-05-17T02:40:28.072Z,111.80
2019-05-17T02:43:02.923Z,113.00
2019-05-17T02:45:33.522Z,106.83
2019-05-17T02:48:05.077Z,122.03
2019-05-17T02:50:36.572Z,104.23
2019-05-17T02:53:08.135Z,111.83
2019-05-17T02:55:43.331Z,90.63
2019-05-17T02:58:14.180Z,92.97
2019-05-17T03:00:45.741Z,95.23
2019-05-17T03:03:17.768Z,97.63
2019-05-17T03:05:49.276Z,91.67
2019-05-17T03:08:23.520Z,81.60
2019-05-17T03:10:54.551Z,87.60
2019-05-17T03:13:27.408Z,102.20
2019-05-17T03:15:58.832Z,99.60
2019-05-17T03:18:33.202Z,93.80
2019-05-17T03:21:04.244Z,89.23
2019-05-17T03:23:36.028Z,100.87
2019-05-17T03:26:07.872Z,101.87
2019-05-17T03:28:42.440Z,94.50
2019-05-17T03:31:17.070Z,89.10
2019-05-17T03:33:46.945Z,77.47
2019-05-17T03:36:18.804Z,91.27
2019-05-17T03:38:53.208Z,81.70
2019-05-17T03:41:28.659Z,79.97
2019-05-17T03:43:56.977Z,82.00
2019-05-17T03:46:28.498Z,79.37
2019-05-17T03:49:03.499Z,83.27
2019-05-17T03:51:33.598Z,86.67
2019-05-17T03:54:05.224Z,79.23
2019-05-17T03:56:37.008Z,76.27
2019-05-17T03:59:08.538Z,67.43
2019-05-17T04:01:43.533Z,60.27
2019-05-17T04:04:13.956Z,60.17
2019-05-17T04:06:45.568Z,53.43
2019-05-17T04:09:17.076Z,58.93
2019-05-17T04:11:48.617Z,56.03
2019-05-17T04:14:22.546Z,56.27
2019-05-17T04:16:54.171Z,63.23
2019-05-17T04:19:25.750Z,55.87
2019-05-17T04:21:57.541Z,64.90
2019-05-17T04:24:32.206Z,61.73
2019-05-17T04:27:03.914Z,59.43
2019-05-17T04:29:35.677Z,57.67
2019-05-17T04:32:07.162Z,66.77
2019-05-17T04:34:38.645Z,66.47
2019-05-17T04:37:12.889Z,71.60
2019-05-17T04:39:43.501Z,67.70
2019-05-17T04:42:15.554Z,72.23
2019-05-17T04:44:47.437Z,71.70
2019-05-17T04:47:22.673Z,73.30
2019-05-17T04:49:53.599Z,73.37
2019-05-17T04:52:26.378Z,76.17
2019-05-17T04:54:57.901Z,74.90
2019-05-17T04:57:32.553Z,75.83
2019-05-17T05:00:04.293Z,77.63
2019-05-17T05:02:37.271Z,85.53
2019-05-17T05:05:13.069Z,72.53
2019-05-17T05:07:43.486Z,79.67
2019-05-17T05:10:15.766Z,77.17
2019-05-17T05:12:47.279Z,80.17
2019-05-17T05:15:32.321Z,81.87
2019-05-17T05:18:03.892Z,84.27
2019-05-17T05:20:36.768Z,78.87
2019-05-17T05:23:08.482Z,73.37
2019-05-17T05:25:42.731Z,66.90
2019-05-17T05:28:13.408Z,62.53
2019-05-17T05:30:45.351Z,57.77
2019-05-17T05:33:17.224Z,61.90
2019-05-17T05:35:49.051Z,51.93
2019-05-17T05:38:21.689Z,49.90
2019-05-17T05:40:53.386Z,50.37
2019-05-17T05:43:24.957Z,51.60
2019-05-17T05:45:56.601Z,51.47
2019-05-17T05:48:28.148Z,46.90
2019-05-17T05:51:02.971Z,49.57
2019-05-17T05:53:32.883Z,48.03
2019-05-17T05:56:04.440Z,42.30
2019-05-17T05:58:35.995Z,44.83
2019-05-17T06:01:07.497Z,43.40
2019-05-17T06:03:41.332Z,41.57
2019-05-17T06:06:13.337Z,38.97
2019-05-17T06:08:45.436Z,39.77
2019-05-17T06:11:17.925Z,43.50
2019-05-17T06:13:49.443Z,37.53
2019-05-17T06:16:22.789Z,49.33
2019-05-17T06:18:54.754Z,38.40
2019-05-17T06:21:26.287Z,38.20
2019-05-17T06:23:57.715Z,34.13
2019-05-17T06:26:31.549Z,34.13
2019-05-17T06:29:03.203Z,38.67
2019-05-17T06:31:36.963Z,37.63
2019-05-17T06:34:07.910Z,34.93
2019-05-17T06:36:42.084Z,33.50
2019-05-17T06:39:12.832Z,31.70
2019-05-17T06:41:44.379Z,34.53
2019-05-17T06:44:15.887Z,39.70
2019-05-17T06:46:47.611Z,40.07
2019-05-17T06:49:19.450Z,35.73
2019-05-17T06:51:51.630Z,37.53
2019-05-17T06:54:23.217Z,36.87
2019-05-17T06:56:54.759Z,43.53
2019-05-17T06:59:26.243Z,41.67
2019-05-17T07:01:59.712Z,38.33
2019-05-17T07:04:30.960Z,37.33
2019-05-17T07:07:20.706Z,38.50
2019-05-17T07:09:52.450Z,35.93
2019-05-17T07:12:23.978Z,35.00
2019-05-17T07:14:58.252Z,30.47
2019-05-17T07:17:30.444Z,31.43
2019-05-17T07:20:02.404Z,33.27
2019-05-17T07:22:34.012Z,32.17
2019-05-17T07:25:06.510Z,32.87
2019-05-17T07:27:42.698Z,27.40
2019-05-17T07:30:14.108Z,31.07
2019-05-17T07:32:45.666Z,30.37
2019-05-17T07:35:19.622Z,33.37
2019-05-17T07:37:50.739Z,32.03
2019-05-17T07:40:22.531Z,26.53
2019-05-17T07:43:06.914Z,31.07
2019-05-17T07:45:29.430Z,27.30
2019-05-17T07:48:00.734Z,26.30
2019-05-17T07:50:32.563Z,28.53
2019-05-17T07:53:04.392Z,25.63
2019-05-17T07:55:35.918Z,27.30
2019-05-17T07:58:10.042Z,27.40
2019-05-17T08:00:42.024Z,22.90
2019-05-17T08:03:13.714Z,22.53
2019-05-17T08:05:45.241Z,23.87
2019-05-17T08:08:16.787Z,22.87
2019-05-17T08:10:50.937Z,23.47
2019-05-17T08:13:30.077Z,22.30
2019-05-17T08:15:56.081Z,23.80
2019-05-17T08:18:29.585Z,19.80
2019-05-17T08:21:00.887Z,21.10
2019-05-17T08:23:33.035Z,21.57
2019-05-17T08:26:05.271Z,20.03
2019-05-17T08:28:37.111Z,20.07
2019-05-17T08:31:09.910Z,20.20
2019-05-17T08:33:41.519Z,18.27
2019-05-17T08:36:13.399Z,18.53
2019-05-17T08:38:45.199Z,18.20
2019-05-17T08:41:16.722Z,17.10
2019-05-17T08:43:51.159Z,16.60
2019-05-17T08:46:21.474Z,23.03
2019-05-17T08:48:53.229Z,16.37
2019-05-17T08:51:24.751Z,13.70
2019-05-17T08:53:56.589Z,13.23
2019-05-17T08:56:30.678Z,13.83
2019-05-17T08:59:01.696Z,15.93
2019-05-17T09:01:33.654Z,13.97
2019-05-17T09:04:05.486Z,12.70
2019-05-17T09:06:36.980Z,11.30
2019-05-17T09:09:10.020Z,11.43
2019-05-17T09:11:41.714Z,16.07
2019-05-17T09:14:13.135Z,11.50
2019-05-17T09:16:44.737Z,11.07
2019-05-17T09:19:16.151Z,11.77
2019-05-17T09:21:47.674Z,10.77
2019-05-17T09:24:19.759Z,10.47
2019-05-17T09:26:52.261Z,9.63
2019-05-17T09:29:23.752Z,9.47
2019-05-17T09:31:55.329Z,11.73
2019-05-17T09:34:26.838Z,10.20
2019-05-17T09:37:00.325Z,12.37
2019-05-17T09:39:32.253Z,10.60
2019-05-17T09:42:03.741Z,11.33
2019-05-17T09:44:35.272Z,10.53
2019-05-17T09:47:06.795Z,10.63
2019-05-17T09:49:39.478Z,10.90
2019-05-17T09:52:11.053Z,10.40
2019-05-17T09:54:45.513Z,9.80
2019-05-17T09:57:16.704Z,9.50
2019-05-17T09:59:49.611Z,9.47
2019-05-17T10:02:21.253Z,11.13
2019-05-17T10:04:53.809Z,8.83
2019-05-17T10:07:25.338Z,8.83
2019-05-17T10:09:56.900Z,9.00
2019-05-17T10:12:28.409Z,8.90
2019-05-17T10:15:00.524Z,8.85
2019-05-17T10:17:33.311Z,8.98
2019-05-17T10:20:05.179Z,8.50
2019-05-17T10:22:36.777Z,9.60
2019-05-17T10:25:09.670Z,8.78
2019-05-17T10:27:41.496Z,8.60
2019-05-17T10:30:13.619Z,9.80
2019-05-17T10:32:45.213Z,7.62
2019-05-17T10:35:17.202Z,8.50
2019-05-17T10:37:50.606Z,8.45
2019-05-17T10:40:22.483Z,8.50
2019-05-17T10:42:54.072Z,8.63
2019-05-17T10:45:25.558Z,7.22
2019-05-17T10:47:57.422Z,7.83
2019-05-17T10:50:29.782Z,7.90
2019-05-17T10:53:01.697Z,7.87
2019-05-17T10:55:33.259Z,7.78
2019-05-17T10:58:04.811Z,8.15
2019-05-17T11:00:36.288Z,7.40
2019-05-17T11:03:09.822Z,10.18
2019-05-17T11:05:41.115Z,8.10
2019-05-17T11:08:12.634Z,7.40
2019-05-17T11:10:44.114Z,7.22
2019-05-17T11:13:15.570Z,6.90
2019-05-17T11:15:47.027Z,7.28
2019-05-17T11:18:18.863Z,7.30
2019-05-17T11:20:50.567Z,7.15
2019-05-17T11:23:22.081Z,6.95
2019-05-17T11:25:53.637Z,7.20
2019-05-17T11:28:25.127Z,6.70
2019-05-17T11:30:56.995Z,7.67
2019-05-17T11:33:28.886Z,6.42
2019-05-17T11:36:00.464Z,6.00
2019-05-17T11:38:32.062Z,6.55
2019-05-17T11:41:19.895Z,6.60
2019-05-17T11:43:36.843Z,6.70
2019-05-17T11:46:08.482Z,6.90
2019-05-17T11:48:40.489Z,6.62
2019-05-17T11:51:11.992Z,6.20
2019-05-17T11:53:43.486Z,6.58
2019-05-17T11:56:14.997Z,6.30
2019-05-17T11:58:46.423Z,7.10
2019-05-17T12:01:17.884Z,6.92
2019-05-17T12:03:49.381Z,6.50
2019-05-17T12:06:20.885Z,6.87
2019-05-17T12:08:52.398Z,5.95
2019-05-17T12:11:23.893Z,6.95
2019-05-17T12:13:55.315Z,7.85
2019-05-17T12:16:26.923Z,6.42
2019-05-17T12:18:58.430Z,7.53
2019-05-17T12:21:29.937Z,6.05
2019-05-17T12:24:01.793Z,5.87
2019-05-17T12:26:34.240Z,7.95
2019-05-17T12:29:06.111Z,6.37
2019-05-17T12:31:37.700Z,5.78
2019-05-17T12:34:09.741Z,6.05
2019-05-17T12:36:41.480Z,6.70
2019-05-17T12:39:13.060Z,5.95
2019-05-17T12:41:44.625Z,5.42
2019-05-17T12:44:16.080Z,5.58
2019-05-17T12:46:47.501Z,6.58
2019-05-17T12:49:20.393Z,5.97
2019-05-17T12:52:08.860Z,5.85
2019-05-17T12:54:56.702Z,6.62
2019-05-17T12:57:29.561Z,7.05
2019-05-17T13:00:01.075Z,5.62
2019-05-17T13:02:35.338Z,6.15
2019-05-17T13:05:07.075Z,4.65
2019-05-17T13:07:40.456Z,6.55
2019-05-17T13:10:12.744Z,6.58
2019-05-17T13:12:44.255Z,4.90
2019-05-17T13:15:17.169Z,4.92
2019-05-17T13:17:48.685Z,5.40
2019-05-17T13:20:20.389Z,5.15
2019-05-17T13:22:51.957Z,5.22
2019-05-17T13:25:23.463Z,5.33
2019-05-17T13:27:54.962Z,3.87
2019-05-17T13:30:26.773Z,4.90
2019-05-17T13:32:58.362Z,4.22
2019-05-17T13:35:29.865Z,5.22
2019-05-17T13:38:01.357Z,4.83
2019-05-17T13:40:39.313Z,3.75
2019-05-17T13:43:06.506Z,4.42
2019-05-17T13:45:37.994Z,4.35
2019-05-17T13:48:09.495Z,4.30
2019-05-17T13:50:40.992Z,4.42
2019-05-17T13:53:12.733Z,4.97
2019-05-17T13:55:44.788Z,4.95
2019-05-17T13:58:16.260Z,4.05
2019-05-17T14:00:47.787Z,4.03
2019-05-17T14:03:19.273Z,4.65
2019-05-17T14:05:50.882Z,3.92
2019-05-17T14:08:22.410Z,4.65
2019-05-17T14:10:53.903Z,4.20
2019-05-17T14:13:25.467Z,4.10
2019-05-17T14:15:56.972Z,7.33
2019-05-17T14:18:28.480Z,3.50
2019-05-17T14:21:01.054Z,3.22
2019-05-17T14:23:33.074Z,4.15
2019-05-17T14:26:04.579Z,3.20
2019-05-17T14:28:36.109Z,6.05
2019-05-17T14:31:07.681Z,4.37
2019-05-17T14:33:39.409Z,3.25
2019-05-17T14:36:10.889Z,4.37
2019-05-17T14:38:42.383Z,3.75
2019-05-17T14:41:13.944Z,3.40
2019-05-17T14:43:45.496Z,3.40
2019-05-17T14:46:16.889Z,3.80
2019-05-17T14:48:48.748Z,4.83
2019-05-17T14:51:21.351Z,4.30
2019-05-17T14:53:52.886Z,5.03
2019-05-17T14:56:24.823Z,4.17
2019-05-17T14:58:56.543Z,4.87
2019-05-17T15:01:28.031Z,4.15
2019-05-17T15:03:59.866Z,3.33
2019-05-17T15:06:31.366Z,3.45
2019-05-17T15:09:04.126Z,4.33
2019-05-17T15:11:35.877Z,5.28
2019-05-17T15:14:07.387Z,4.17
2019-05-17T15:16:38.888Z,3.65
2019-05-17T15:19:10.369Z,3.08
2019-05-17T15:21:41.893Z,7.00
2019-05-17T15:24:13.640Z,3.12
2019-05-17T15:27:00.914Z,3.33
2019-05-17T15:29:19.811Z,4.42
2019-05-17T15:31:52.153Z,3.35
2019-05-17T15:34:23.948Z,3.42
2019-05-17T15:36:56.439Z,2.45
2019-05-17T15:39:27.993Z,4.90
2019-05-17T15:42:00.004Z,4.05
2019-05-17T15:44:31.564Z,3.17
2019-05-17T15:47:03.029Z,3.85
2019-05-17T15:49:34.721Z,2.67
2019-05-17T15:52:07.177Z,5.60
2019-05-17T15:54:38.794Z,3.20
2019-05-17T15:57:10.338Z,3.42
2019-05-17T15:59:42.216Z,7.62
2019-05-17T16:02:14.115Z,2.77
2019-05-17T16:04:45.596Z,2.22
2019-05-17T16:07:17.122Z,2.27
2019-05-17T16:09:49.233Z,4.25
2019-05-17T16:12:20.783Z,2.20
2019-05-17T16:14:52.335Z,2.15
2019-05-17T16:17:27.236Z,2.30
2019-05-17T16:19:58.689Z,2.30
2019-05-17T16:22:30.495Z,3.80
2019-05-17T16:25:02.417Z,2.25
2019-05-17T16:27:33.982Z,2.20
2019-05-17T16:30:05.698Z,2.30
2019-05-17T16:32:37.258Z,4.28
2019-05-17T16:35:09.287Z,2.72
2019-05-17T16:37:40.818Z,2.30
2019-05-17T16:40:12.657Z,2.40
2019-05-17T16:42:44.449Z,1.90
2019-05-17T16:45:19.142Z,2.65
2019-05-17T16:47:50.654Z,2.30
2019-05-17T16:50:22.854Z,2.20
2019-05-17T16:53:05.406Z,2.42
2019-05-17T16:55:27.605Z,1.65
2019-05-17T16:57:59.441Z,4.80
2019-05-17T17:00:34.088Z,2.42
2019-05-17T17:03:06.764Z,2.00
2019-05-17T17:05:38.741Z,3.05
2019-05-17T17:08:10.531Z,1.80
2019-05-17T17:10:42.272Z,1.85
2019-05-17T17:13:13.833Z,2.58
2019-05-17T17:15:45.607Z,2.60
2019-05-17T17:18:17.179Z,2.12
2019-05-17T17:20:48.842Z,4.20
2019-05-17T17:23:21.015Z,2.80
2019-05-17T17:25:52.516Z,3.02
2019-05-17T17:28:25.552Z,3.13
2019-05-17T17:30:57.226Z,2.60
2019-05-17T17:33:29.089Z,1.83
2019-05-17T17:36:01.727Z,4.03
2019-05-17T17:38:33.563Z,3.45
2019-05-17T17:41:05.060Z,1.90
2019-05-17T17:43:36.813Z,2.83
2019-05-17T17:46:08.315Z,2.27
2019-05-17T17:48:39.758Z,2.40
2019-05-17T17:51:11.378Z,4.00
2019-05-17T17:53:43.250Z,2.00
2019-05-17T17:56:14.743Z,2.70
2019-05-17T17:58:46.288Z,2.73
2019-05-17T18:01:17.806Z,2.27
2019-05-17T18:03:49.358Z,2.17
2019-05-17T18:06:20.930Z,2.00
2019-05-17T18:08:52.459Z,2.80
2019-05-17T18:11:24.413Z,2.40
2019-05-17T18:13:56.672Z,4.70
2019-05-17T18:16:28.082Z,3.20
2019-05-17T18:18:59.627Z,3.23
2019-05-17T18:21:31.133Z,2.20
2019-05-17T18:24:02.599Z,2.33
2019-05-17T18:26:34.450Z,3.53
2019-05-17T18:29:08.050Z,2.23
2019-05-17T18:31:41.475Z,2.80
2019-05-17T18:34:12.981Z,2.10
2019-05-17T18:36:45.234Z,2.40
2019-05-17T18:39:16.720Z,2.50
2019-05-17T18:41:48.586Z,2.27
2019-05-17T18:44:27.788Z,3.00
2019-05-17T18:46:54.319Z,3.40
2019-05-17T18:49:26.185Z,2.53
2019-05-17T18:51:57.767Z,2.80
2019-05-17T18:54:29.613Z,3.27
2019-05-17T18:57:01.223Z,2.50
2019-05-17T18:59:35.367Z,2.63
2019-05-17T19:02:08.055Z,2.27
2019-05-17T19:04:39.537Z,2.90
2019-05-17T19:07:11.045Z,4.13
2019-05-17T19:09:42.527Z,2.40
2019-05-17T19:12:14.030Z,2.00
2019-05-17T19:14:45.501Z,3.23
2019-05-17T19:17:17.049Z,3.20
2019-05-17T19:19:48.524Z,2.60
2019-05-17T19:22:20.037Z,3.70
2019-05-17T19:24:52.848Z,3.30
2019-05-17T19:27:24.341Z,2.60
2019-05-17T19:29:56.125Z,2.70
2019-05-17T19:32:27.669Z,2.80
2019-05-17T19:34:59.179Z,4.50
2019-05-17T19:37:31.023Z,3.50
2019-05-17T19:40:02.788Z,3.63
2019-05-17T19:42:34.274Z,3.23
2019-05-17T19:45:06.543Z,3.83
2019-05-17T19:47:38.037Z,4.23
2019-05-17T19:50:10.497Z,3.77
2019-05-17T19:52:42.234Z,4.27
2019-05-17T19:55:15.290Z,4.53
2019-05-17T19:57:46.769Z,3.80
2019-05-17T20:00:18.922Z,8.17
2019-05-17T20:02:50.671Z,4.53
2019-05-17T20:05:22.172Z,5.17
2019-05-17T20:07:53.693Z,3.47
2019-05-17T20:10:25.645Z,3.60
2019-05-17T20:12:57.151Z,4.63
2019-05-17T20:15:34.462Z,4.17
2019-05-17T20:18:02.675Z,5.90
2019-05-17T20:20:34.041Z,4.30
2019-05-17T20:23:05.708Z,3.40
2019-05-17T20:25:37.194Z,4.17
2019-05-17T20:28:10.320Z,4.77
2019-05-17T20:30:41.811Z,3.93
2019-05-17T20:33:13.476Z,4.53
2019-05-17T20:35:44.966Z,4.83
2019-05-17T20:38:16.867Z,4.30
2019-05-17T20:40:49.026Z,4.37
2019-05-17T20:43:20.534Z,4.67
2019-05-17T20:45:52.048Z,4.87
2019-05-17T20:48:25.896Z,4.33
2019-05-17T20:50:56.878Z,4.73
2019-05-17T20:53:28.448Z,5.07
2019-05-17T20:55:59.909Z,5.00
2019-05-17T20:58:31.408Z,5.57
2019-05-17T21:01:03.105Z,5.40
2019-05-17T21:03:34.594Z,4.07
2019-05-17T21:06:06.076Z,5.90
2019-05-17T21:08:45.953Z,5.83
2019-05-17T21:11:11.186Z,5.67
2019-05-17T21:13:42.895Z,5.00
2019-05-17T21:16:14.777Z,5.70
2019-05-17T21:18:46.361Z,7.73
2019-05-17T21:21:18.092Z,5.90
2019-05-17T21:23:49.711Z,5.40
2019-05-17T21:26:21.160Z,5.13
2019-05-17T21:28:53.004Z,5.97
2019-05-17T21:31:24.430Z,6.60
2019-05-17T21:33:55.922Z,5.60
2019-05-17T21:36:27.615Z,6.83
2019-05-17T21:38:59.380Z,5.33
2019-05-17T21:41:30.882Z,9.00
2019-05-17T21:44:02.388Z,5.67
2019-05-17T21:46:33.809Z,7.00
2019-05-17T21:49:05.704Z,5.23
2019-05-17T21:51:37.216Z,5.60
2019-05-17T21:54:08.717Z,6.93
2019-05-17T21:56:40.325Z,6.17
2019-05-17T21:59:12.818Z,6.17
2019-05-17T22:01:44.650Z,6.57
2019-05-17T22:04:16.141Z,8.10
2019-05-17T22:06:47.737Z,10.70
2019-05-17T22:09:19.716Z,11.10
2019-05-17T22:11:53.057Z,12.57
2019-05-17T22:14:24.855Z,11.27
2019-05-17T22:16:56.735Z,12.23
2019-05-17T22:19:28.238Z,13.20
2019-05-17T22:21:59.766Z,12.77
2019-05-17T22:24:31.241Z,13.37
2019-05-17T22:27:02.734Z,17.67
2019-05-17T22:29:34.415Z,13.80
2019-05-17T22:32:06.030Z,17.87
2019-05-17T22:34:37.775Z,17.10
2019-05-17T22:37:09.293Z,17.13
2019-05-17T22:39:40.840Z,16.13
2019-05-17T22:42:12.340Z,16.83
2019-05-17T22:44:44.204Z,16.23
2019-05-17T22:47:16.108Z,15.17
2019-05-17T22:49:47.604Z,17.63
2019-05-17T22:52:19.026Z,15.00
2019-05-17T22:54:50.908Z,18.37
2019-05-17T22:57:22.408Z,16.13
2019-05-17T22:59:53.982Z,17.53
2019-05-17T23:02:25.629Z,15.67
2019-05-17T23:04:57.443Z,15.70
2019-05-17T23:07:29.247Z,14.33
2019-05-17T23:10:00.824Z,15.30
2019-05-17T23:12:32.248Z,16.17
2019-05-17T23:15:04.257Z,14.07
2019-05-17T23:17:35.697Z,14.97
2019-05-17T23:20:07.313Z,15.30
2019-05-17T23:22:38.796Z,15.23
2019-05-17T23:25:10.296Z,15.07
2019-05-17T23:27:41.864Z,17.00
2019-05-17T23:30:14.245Z,15.20
2019-05-17T23:32:46.681Z,16.07
2019-05-17T23:35:18.467Z,15.93
2019-05-17T23:37:49.965Z,15.43
2019-05-17T23:40:21.836Z,15.93
2019-05-17T23:42:53.346Z,14.13
2019-05-17T23:45:24.851Z,14.07
2019-05-17T23:47:56.366Z,14.80
2019-05-17T23:50:27.793Z,14.53
2019-05-17T23:52:59.383Z,14.20
2019-05-17T23:55:30.873Z,15.00
2019-05-17T23:58:02.370Z,11.80
